Time;durP1;ratioP1;P1;durP2;ratioP2;P2;SDS_P1;SDS_P2;PMS_P1;PMS_P2;Temp;Humidity;BMP_temperature;BMP_pressure;BME280_temperature;BME280_humidity;BME280_pressure;Samples;Min_cycle;Max_cycle;Signal;HPM_P1;HPM_P2
2023/12/10 00:02:44;;;;;;;;;;;;;;;20.20;35.61;94387.31;10501750;28;2855;-52
2023/12/10 00:07:44;;;;;;;;;;;;;;;20.18;35.26;94399.97;10496105;28;2902;-50
2023/12/10 00:12:47;;;;;;;;;;;;;;;20.12;35.45;94413.53;10510592;28;2867;-50
2023/12/10 00:17:47;;;;;;;;;;;;;;;20.08;35.53;94415.22;10496047;28;2888;-50
2023/12/10 00:22:48;;;;;;;;;;;;;;;20.04;35.47;94430.84;10493528;28;2913;-49
2023/12/10 00:27:48;;;;;;;;;;;;;;;20.04;34.80;94425.59;10493794;28;2913;-49
2023/12/10 00:32:48;;;;;;;;;;;;;;;20.01;34.80;94447.22;10492381;28;2873;-47
2023/12/10 00:37:48;;;;;;;;;;;;;;;19.95;35.39;94458.16;10491276;28;2818;-49
2023/12/10 00:42:49;;;;;;;;;;;;;;;19.92;35.35;94471.91;10499826;28;2817;-50
2023/12/10 00:47:49;;;;;;;;;;;;;;;19.91;35.25;94484.28;10488272;28;4645;-49
2023/12/10 00:52:49;;;;;;;;;;;;;;;19.88;35.00;94497.25;10494581;28;2830;-47
2023/12/10 00:57:49;;;;;;;;;;;;;;;19.86;34.99;94496.78;10488841;28;2815;-47
2023/12/10 01:02:50;;;;;;;;;;;;;;;19.84;34.72;94512.09;10501589;28;2932;-51
2023/12/10 01:07:53;;;;;;;;;;;;;;;19.82;34.43;94516.88;10500313;28;2865;-49
2023/12/10 01:12:53;;;;;;;;;;;;;;;19.77;34.92;94536.16;10492168;28;2865;-46
2023/12/10 01:17:53;;;;;;;;;;;;;;;19.74;34.67;94555.16;10493715;28;2817;-51
2023/12/10 01:22:54;;;;;;;;;;;;;;;19.72;34.69;94569.69;10496617;28;3291;-50
2023/12/10 01:27:54;;;;;;;;;;;;;;;19.68;34.95;94587.88;10489353;28;2805;-50
2023/12/10 01:32:58;;;;;;;;;;;;;;;19.67;34.96;94609.22;10488517;28;2877;-47
2023/12/10 01:37:59;;;;;;;;;;;;;;;19.65;34.60;94630.53;10492103;28;2822;-47
2023/12/10 01:43:04;;;;;;;;;;;;;;;19.62;34.46;94649.53;10490601;28;2861;-49
2023/12/10 01:48:04;;;;;;;;;;;;;;;19.59;34.93;94662.47;10487953;28;2867;-53
2023/12/10 01:53:05;;;;;;;;;;;;;;;19.57;34.76;94677.75;10493836;28;2833;-50
2023/12/10 01:58:05;;;;;;;;;;;;;;;19.55;34.41;94698.31;10505333;28;2781;-46
2023/12/10 02:03:05;;;;;;;;;;;;;;;19.52;34.64;94723.31;10501211;28;2813;-51
2023/12/10 02:08:06;;;;;;;;;;;;;;;19.49;34.38;94748.31;10507771;28;2852;-51
2023/12/10 02:13:06;;;;;;;;;;;;;;;19.48;34.38;94735.50;10502185;28;3001;-48
2023/12/10 02:18:07;;;;;;;;;;;;;;;19.44;34.38;94732.66;10498785;28;2876;-50
2023/12/10 02:23:09;;;;;;;;;;;;;;;19.44;34.24;94751.06;10504014;28;2824;-51
2023/12/10 02:28:09;;;;;;;;;;;;;;;19.42;34.58;94766.34;10495953;28;2865;-49
2023/12/10 02:33:10;;;;;;;;;;;;;;;19.38;34.60;94796.13;10503499;28;3001;-51
2023/12/10 02:38:10;;;;;;;;;;;;;;;19.38;34.46;94812.66;10503969;28;2817;-47
2023/12/10 02:43:10;;;;;;;;;;;;;;;19.36;34.47;94817.44;10503768;28;4621;-51
2023/12/10 02:48:10;;;;;;;;;;;;;;;19.34;34.55;94822.19;10502578;28;2785;-51
2023/12/10 02:53:11;;;;;;;;;;;;;;;19.32;34.42;94819.03;10494825;28;3242;-49
2023/12/10 02:58:11;;;;;;;;;;;;;;;19.32;34.35;94824.28;10499038;28;2841;-51
2023/12/10 03:03:11;;;;;;;;;;;;;;;19.31;34.05;94835.06;10496805;28;2920;-48
2023/12/10 03:08:11;;;;;;;;;;;;;;;19.29;34.28;94842.47;10499609;28;2845;-47
2023/12/10 03:13:12;;;;;;;;;;;;;;;19.26;34.36;94849.09;10498705;28;2866;-51
2023/12/10 03:18:12;;;;;;;;;;;;;;;19.24;34.65;94853.06;10493888;28;3111;-51
2023/12/10 03:23:12;;;;;;;;;;;;;;;19.22;34.65;94865.72;10496989;28;2976;-51
2023/12/10 03:28:12;;;;;;;;;;;;;;;19.22;34.18;94876.22;10491527;28;3049;-54
2023/12/10 03:33:13;;;;;;;;;;;;;;;19.18;34.53;94889.16;10504212;28;3004;-48
2023/12/10 03:38:13;;;;;;;;;;;;;;;19.17;34.40;94895.47;10502267;28;3182;-50
2023/12/10 03:43:13;;;;;;;;;;;;;;;19.16;34.09;94903.63;10498122;28;4620;-53
2023/12/10 03:48:13;;;;;;;;;;;;;;;19.14;34.56;94909.19;10500122;28;2941;-52
2023/12/10 03:53:14;;;;;;;;;;;;;;;19.13;34.20;94927.81;10500740;28;2784;-50
2023/12/10 03:58:14;;;;;;;;;;;;;;;19.12;34.32;94924.44;10505344;28;2894;-48
2023/12/10 04:03:15;;;;;;;;;;;;;;;19.08;34.37;94928.66;10515007;28;2774;-48
2023/12/10 04:08:15;;;;;;;;;;;;;;;19.07;34.35;94931.59;10506610;28;3026;-50
2023/12/10 04:13:15;;;;;;;;;;;;;;;19.07;34.32;94928.97;10505162;28;2812;-50
2023/12/10 04:18:16;;;;;;;;;;;;;;;19.04;34.63;94945.31;10503614;28;2830;-51
2023/12/10 04:23:16;;;;;;;;;;;;;;;19.03;34.15;94951.59;10503299;28;2844;-51
2023/12/10 04:28:17;;;;;;;;;;;;;;;19.02;34.23;94950.06;10497238;28;2901;-49
2023/12/10 04:33:17;;;;;;;;;;;;;;;18.98;34.24;94960.31;10495470;28;10212;-50
2023/12/10 04:38:18;;;;;;;;;;;;;;;18.98;34.08;94960.31;10490822;28;5303;-49
2023/12/10 04:43:18;;;;;;;;;;;;;;;18.97;34.19;94979.78;10491994;28;5340;-51
2023/12/10 04:48:18;;;;;;;;;;;;;;;18.92;34.29;94995.59;10487790;28;3119;-53
2023/12/10 04:53:18;;;;;;;;;;;;;;;18.91;34.12;94995.88;10482390;28;5355;-46
2023/12/10 04:58:19;;;;;;;;;;;;;;;18.88;34.11;94984.09;10490621;28;2824;-47
2023/12/10 05:03:19;;;;;;;;;;;;;;;18.87;33.98;94997.50;10489570;28;2812;-50
2023/12/10 05:08:20;;;;;;;;;;;;;;;18.87;34.94;95014.06;10499197;28;5198;-48
2023/12/10 05:13:20;;;;;;;;;;;;;;;18.91;35.12;95012.44;10489742;28;2802;-51
2023/12/10 05:18:20;;;;;;;;;;;;;;;18.97;34.96;95021.81;10489988;28;2824;-50
2023/12/10 05:23:21;;;;;;;;;;;;;;;19.02;35.03;95019.09;10489006;28;3186;-54
2023/12/10 05:28:21;;;;;;;;;;;;;;;19.11;34.96;95033.19;10494926;28;3177;-51
2023/12/10 05:33:21;;;;;;;;;;;;;;;19.17;35.08;95041.78;10504895;28;2973;-50
2023/12/10 05:38:21;;;;;;;;;;;;;;;19.22;34.90;95055.66;10502125;28;2910;-53
2023/12/10 05:43:23;;;;;;;;;;;;;;;19.27;34.85;95055.59;10493322;28;4758;-49
2023/12/10 05:48:23;;;;;;;;;;;;;;;19.33;34.69;95075.50;10508421;28;3278;-52
2023/12/10 05:53:23;;;;;;;;;;;;;;;19.37;34.62;95104.66;10498081;28;3127;-52
2023/12/10 05:58:23;;;;;;;;;;;;;;;19.41;34.78;95103.81;10495783;28;3154;-50
2023/12/10 06:03:27;;;;;;;;;;;;;;;19.44;34.72;95105.88;10496102;28;3174;-48
2023/12/10 06:08:27;;;;;;;;;;;;;;;19.48;34.52;95121.88;10507965;28;2916;-50
2023/12/10 06:13:28;;;;;;;;;;;;;;;19.49;34.56;95116.31;10493954;28;3154;-50
2023/12/10 06:18:28;;;;;;;;;;;;;;;19.55;34.10;95118.91;10498784;28;3195;-49
2023/12/10 06:23:28;;;;;;;;;;;;;;;19.57;34.20;95128.06;10497928;28;3242;-48
2023/12/10 06:28:28;;;;;;;;;;;;;;;19.59;34.40;95143.56;10490961;28;3273;-48
2023/12/10 06:33:29;;;;;;;;;;;;;;;19.61;34.50;95157.19;10501296;28;2825;-51
2023/12/10 06:38:29;;;;;;;;;;;;;;;19.63;34.39;95155.06;10499291;28;2869;-54
2023/12/10 06:43:30;;;;;;;;;;;;;;;19.65;34.32;95159.00;10492112;28;6493;-48
2023/12/10 06:48:30;;;;;;;;;;;;;;;19.68;34.28;95163.69;10496003;28;2864;-51
2023/12/10 06:53:31;;;;;;;;;;;;;;;19.67;34.51;95171.84;10491746;28;2817;-48
2023/12/10 06:58:32;;;;;;;;;;;;;;;19.71;34.20;95178.91;10496457;28;2848;-48
2023/12/10 07:03:32;;;;;;;;;;;;;;;19.75;34.11;95189.63;10492741;28;2842;-49
2023/12/10 07:08:33;;;;;;;;;;;;;;;19.73;34.27;95194.41;10503669;28;2922;-51
2023/12/10 07:13:33;;;;;;;;;;;;;;;19.75;34.20;95200.94;10501326;28;2797;-48
2023/12/10 07:18:33;;;;;;;;;;;;;;;19.77;34.12;95221.69;10497707;28;3167;-47
2023/12/10 07:23:34;;;;;;;;;;;;;;;19.79;33.98;95240.59;10506652;28;2832;-48
2023/12/10 07:28:35;;;;;;;;;;;;;;;19.80;33.93;95235.09;10492945;28;2774;-50
2023/12/10 07:33:35;;;;;;;;;;;;;;;19.83;34.10;95249.50;10490891;28;3225;-50
2023/12/10 07:38:35;;;;;;;;;;;;;;;19.84;34.00;95251.06;10477417;28;3185;-52
2023/12/10 07:43:35;;;;;;;;;;;;;;;19.84;33.96;95257.13;10498540;28;5954;-51
2023/12/10 07:48:36;;;;;;;;;;;;;;;19.87;34.22;95266.28;10496103;28;2873;-51
2023/12/10 07:53:36;;;;;;;;;;;;;;;19.90;34.28;95273.63;10492501;28;2876;-52
2023/12/10 07:58:36;;;;;;;;;;;;;;;19.92;34.05;95279.41;10495408;28;2867;-52
2023/12/10 08:03:37;;;;;;;;;;;;;;;19.97;34.03;95284.59;10495826;28;2948;-51
2023/12/10 08:08:37;;;;;;;;;;;;;;;20.02;33.42;95301.13;10497134;28;2801;-52
2023/12/10 08:13:37;;;;;;;;;;;;;;;20.06;33.92;95312.66;10496825;28;3450;-50
2023/12/10 08:18:38;;;;;;;;;;;;;;;20.14;34.68;95319.13;10494346;28;2967;-49
2023/12/10 08:23:38;;;;;;;;;;;;;;;20.21;34.69;95330.13;10493414;28;2908;-52
2023/12/10 08:28:39;;;;;;;;;;;;;;;20.26;35.01;95337.97;10497878;28;2843;-48
2023/12/10 08:33:39;;;;;;;;;;;;;;;20.25;35.06;95349.56;10498191;28;2872;-51
2023/12/10 08:38:40;;;;;;;;;;;;;;;20.25;34.87;95358.25;10495288;27;2965;-52
2023/12/10 08:43:40;;;;;;;;;;;;;;;20.31;34.34;95366.88;10495285;28;5045;-51
2023/12/10 08:48:42;;;;;;;;;;;;;;;20.35;33.64;95372.34;10497770;28;2805;-50
2023/12/10 08:53:42;;;;;;;;;;;;;;;20.35;33.41;95377.59;10504070;28;2888;-53
2023/12/10 08:58:42;;;;;;;;;;;;;;;20.31;33.15;95382.66;10495437;28;2851;-50
2023/12/10 09:03:45;;;;;;;;;;;;;;;20.26;33.08;95387.97;10499090;28;2905;-53
2023/12/10 09:08:45;;;;;;;;;;;;;;;20.29;33.27;95379.53;10503865;28;2905;-49
2023/12/10 09:13:46;;;;;;;;;;;;;;;20.18;33.98;95378.03;10500284;28;2951;-51
2023/12/10 09:18:46;;;;;;;;;;;;;;;20.14;33.86;95374.38;10502788;28;2804;-49
2023/12/10 09:23:46;;;;;;;;;;;;;;;20.14;33.51;95375.19;10502083;28;2876;-49
2023/12/10 09:28:46;;;;;;;;;;;;;;;20.14;33.26;95372.53;10499827;28;2827;-51
2023/12/10 09:33:47;;;;;;;;;;;;;;;20.07;33.44;95381.84;10499995;28;2940;-48
2023/12/10 09:38:47;;;;;;;;;;;;;;;20.09;33.14;95385.75;10503634;28;3189;-51
2023/12/10 09:43:48;;;;;;;;;;;;;;;19.90;34.05;95390.16;10505710;28;5045;-52
2023/12/10 09:48:48;;;;;;;;;;;;;;;19.89;34.60;95390.41;10511456;28;2789;-48
2023/12/10 09:53:48;;;;;;;;;;;;;;;19.92;34.67;95403.03;10505102;28;3242;-48
2023/12/10 09:58:49;;;;;;;;;;;;;;;20.02;34.78;95402.94;10508530;28;2781;-49
2023/12/10 10:03:49;;;;;;;;;;;;;;;20.10;34.87;95386.53;10508356;28;2813;-50
2023/12/10 10:08:50;;;;;;;;;;;;;;;20.10;35.39;95389.97;10500716;28;2863;-49
2023/12/10 10:13:51;;;;;;;;;;;;;;;20.11;35.72;95402.03;10507959;28;2958;-50
2023/12/10 10:18:51;;;;;;;;;;;;;;;20.14;36.00;95411.22;10501391;28;2836;-50
2023/12/10 10:23:52;;;;;;;;;;;;;;;20.12;35.92;95413.34;10504378;28;2818;-52
2023/12/10 10:28:52;;;;;;;;;;;;;;;20.08;36.41;95401.81;10504007;28;2804;-51
2023/12/10 10:33:52;;;;;;;;;;;;;;;20.08;36.58;95401.81;10504125;28;3482;-51
2023/12/10 10:38:52;;;;;;;;;;;;;;;20.09;35.84;95413.94;10512061;28;2876;-53
2023/12/10 10:43:56;;;;;;;;;;;;;;;20.09;36.09;95416.56;10503459;28;5009;-49
2023/12/10 10:48:56;;;;;;;;;;;;;;;20.06;36.05;95427.63;10500944;28;2958;-51
2023/12/10 10:53:57;;;;;;;;;;;;;;;20.11;35.54;95430.22;10513665;28;2803;-53
2023/12/10 10:58:58;;;;;;;;;;;;;;;20.09;35.67;95414.69;10504318;28;2903;-52
2023/12/10 11:03:58;;;;;;;;;;;;;;;20.11;35.02;95406.53;10501797;28;2876;-51
2023/12/10 11:08:59;;;;;;;;;;;;;;;20.08;35.82;95401.81;10505331;28;2909;-49
2023/12/10 11:13:59;;;;;;;;;;;;;;;20.10;35.67;95386.53;10504462;28;2768;-47
2023/12/10 11:19:00;;;;;;;;;;;;;;;20.13;35.02;95386.00;10501049;28;2925;-50
2023/12/10 11:24:00;;;;;;;;;;;;;;;20.14;34.96;95382.28;10503328;28;3080;-52
2023/12/10 11:29:03;;;;;;;;;;;;;;;20.15;34.86;95384.63;10506648;28;3173;-54
2023/12/10 11:34:03;;;;;;;;;;;;;;;20.12;35.63;95392.31;10503039;28;2873;-53
2023/12/10 11:39:04;;;;;;;;;;;;;;;20.16;35.39;95401.19;10505913;28;2822;-52
2023/12/10 11:44:04;;;;;;;;;;;;;;;20.18;35.61;95409.59;10504321;28;5075;-50
2023/12/10 11:49:06;;;;;;;;;;;;;;;20.21;35.20;95415.16;10503808;28;2777;-52
2023/12/10 11:54:07;;;;;;;;;;;;;;;20.22;35.46;95427.22;10501824;28;2842;-51
2023/12/10 11:59:08;;;;;;;;;;;;;;;20.24;34.84;95419.03;10502811;28;3138;-51
2023/12/10 12:04:08;;;;;;;;;;;;;;;20.23;35.46;95428.03;10500980;28;2803;-48
2023/12/10 12:09:12;;;;;;;;;;;;;;;20.23;35.19;95420.91;10502224;28;2844;-52
2023/12/10 12:14:14;;;;;;;;;;;;;;;20.24;35.15;95417.22;10490659;28;2815;-50
2023/12/10 12:19:24;;;;;;;;;;;;;;;20.24;35.58;95422.47;10502457;28;2817;-48
2023/12/10 12:24:24;;;;;;;;;;;;;;;20.26;35.15;95428.25;10504021;28;2875;-47
2023/12/10 12:29:27;;;;;;;;;;;;;;;20.31;35.05;95419.50;10496071;28;2961;-50
2023/12/10 12:34:27;;;;;;;;;;;;;;;20.31;35.45;95426.63;10502981;28;2809;-52
2023/12/10 12:39:27;;;;;;;;;;;;;;;20.34;34.85;95418.19;10501216;28;2768;-50
2023/12/10 12:44:27;;;;;;;;;;;;;;;20.39;34.24;95411.00;10488043;28;5226;-49
2023/12/10 12:49:28;;;;;;;;;;;;;;;20.37;34.26;95407.88;10493703;28;2837;-50
2023/12/10 12:54:28;;;;;;;;;;;;;;;20.36;34.77;95414.19;10500081;28;2883;-46
2023/12/10 12:59:28;;;;;;;;;;;;;;;20.38;34.81;95421.81;10505202;28;2934;-51
2023/12/10 13:04:28;;;;;;;;;;;;;;;20.39;34.84;95413.63;10504910;28;2770;-53
2023/12/10 13:09:29;;;;;;;;;;;;;;;20.37;34.77;95423.66;10497264;28;2932;-52
2023/12/10 13:14:29;;;;;;;;;;;;;;;20.38;34.44;95404.16;10496676;28;2873;-49
2023/12/10 13:19:29;;;;;;;;;;;;;;;20.34;34.46;95402.38;10495347;28;2850;-48
2023/12/10 13:24:30;;;;;;;;;;;;;;;20.26;34.76;95411.66;10501287;28;2854;-50
2023/12/10 13:29:30;;;;;;;;;;;;;;;20.21;35.32;95417.00;10501307;28;2851;-52
2023/12/10 13:34:30;;;;;;;;;;;;;;;20.18;34.91;95414.88;10499983;28;2859;-49
2023/12/10 13:39:31;;;;;;;;;;;;;;;20.17;34.80;95424.59;10493478;28;2909;-50
2023/12/10 13:44:31;;;;;;;;;;;;;;;20.31;33.72;95416.09;10505111;28;5038;-51
2023/12/10 13:49:31;;;;;;;;;;;;;;;20.27;33.75;95410.59;10504618;28;2900;-47
2023/12/10 13:54:32;;;;;;;;;;;;;;;20.15;35.02;95415.44;10500738;28;2882;-49
2023/12/10 13:59:32;;;;;;;;;;;;;;;20.12;34.92;95414.16;10517563;28;3189;-52
2023/12/10 14:04:32;;;;;;;;;;;;;;;20.10;35.09;95418.09;10502657;28;3709;-48
2023/12/10 14:09:33;;;;;;;;;;;;;;;20.04;35.07;95414.75;10496251;28;2852;-47
2023/12/10 14:14:33;;;;;;;;;;;;;;;20.02;35.13;95413.44;10509974;28;2766;-49
2023/12/10 14:19:33;;;;;;;;;;;;;;;19.95;35.20;95407.72;10506608;28;2814;-49
2023/12/10 14:24:34;;;;;;;;;;;;;;;19.92;35.33;95408.28;10503136;28;2841;-49
2023/12/10 14:29:34;;;;;;;;;;;;;;;19.90;35.41;95397.25;10510209;28;3225;-49
2023/12/10 14:34:34;;;;;;;;;;;;;;;19.86;35.54;95412.03;10503254;28;2835;-50
2023/12/10 14:39:35;;;;;;;;;;;;;;;19.89;35.09;95406.19;10513325;28;2855;-49
2023/12/10 14:44:35;;;;;;;;;;;;;;;19.88;35.42;95394.13;10507279;28;4986;-48
2023/12/10 14:49:35;;;;;;;;;;;;;;;19.90;35.78;95398.06;10514942;28;2813;-54
2023/12/10 14:54:36;;;;;;;;;;;;;;;19.93;35.75;95397.47;10506612;28;2804;-49
2023/12/10 14:59:36;;;;;;;;;;;;;;;19.94;35.96;95390.38;10536874;27;2896;-52
2023/12/10 15:04:36;;;;;;;;;;;;;;;19.96;35.46;95373.25;10500925;28;2951;-53
2023/12/10 15:09:40;;;;;;;;;;;;;;;19.97;35.76;95382.72;10501957;28;2931;-52
2023/12/10 15:14:40;;;;;;;;;;;;;;;20.01;35.71;95383.72;10505092;28;2800;-53
2023/12/10 15:19:44;;;;;;;;;;;;;;;20.04;35.29;95385.00;10511486;28;2935;-53
2023/12/10 15:24:45;;;;;;;;;;;;;;;20.07;35.33;95374.72;10511711;28;2773;-51
2023/12/10 15:29:45;;;;;;;;;;;;;;;20.08;35.41;95367.59;10500699;28;2790;-51
2023/12/10 15:34:46;;;;;;;;;;;;;;;20.11;35.36;95361.81;10501988;28;2835;-52
2023/12/10 15:39:46;;;;;;;;;;;;;;;20.12;35.21;95358.09;10498925;28;2899;-52
2023/12/10 15:44:47;;;;;;;;;;;;;;;20.12;35.07;95353.63;10505483;28;2931;-50
2023/12/10 15:49:47;;;;;;;;;;;;;;;20.12;34.90;95347.56;10508861;28;3130;-53
2023/12/10 15:54:47;;;;;;;;;;;;;;;20.11;34.90;95340.75;10498296;28;2848;-51
2023/12/10 15:59:48;;;;;;;;;;;;;;;20.12;34.66;95331.78;10489876;28;2781;-53
2023/12/10 16:04:48;;;;;;;;;;;;;;;20.14;34.93;95342.81;10506224;28;2869;-52
2023/12/10 16:09:49;;;;;;;;;;;;;;;20.16;34.77;95335.41;10509517;28;2782;-49
2023/12/10 16:14:50;;;;;;;;;;;;;;;20.14;34.95;95332.28;10496712;28;2884;-52
2023/12/10 16:19:50;;;;;;;;;;;;;;;20.14;34.95;95327.03;10505502;28;2921;-53
2023/12/10 16:24:51;;;;;;;;;;;;;;;20.17;34.88;95329.09;10491755;28;2848;-50
2023/12/10 16:29:51;;;;;;;;;;;;;;;20.16;34.62;95317.78;10491631;28;2839;-51
2023/12/10 16:34:51;;;;;;;;;;;;;;;20.17;35.28;95316.72;10494357;28;2942;-50
2023/12/10 16:39:51;;;;;;;;;;;;;;;20.18;34.69;95315.66;10503245;28;2761;-51
2023/12/10 16:44:52;;;;;;;;;;;;;;;20.21;34.93;95296.72;10500853;28;2924;-51
2023/12/10 16:49:52;;;;;;;;;;;;;;;20.20;34.78;95302.25;10507118;28;2851;-51
2023/12/10 16:54:52;;;;;;;;;;;;;;;20.22;34.53;95294.84;10494755;28;3085;-47
2023/12/10 16:59:52;;;;;;;;;;;;;;;20.21;34.82;95285.41;10497925;28;2753;-48
2023/12/10 17:04:53;;;;;;;;;;;;;;;20.22;34.06;95279.84;10499304;28;2824;-52
2023/12/10 17:09:53;;;;;;;;;;;;;;;20.25;34.38;95283.78;10495188;28;2894;-52
2023/12/10 17:14:53;;;;;;;;;;;;;;;20.22;34.37;95281.69;10508755;28;2875;-52
2023/12/10 17:19:56;;;;;;;;;;;;;;;20.27;33.93;95279.00;10502555;28;2780;-49
2023/12/10 17:24:57;;;;;;;;;;;;;;;20.26;34.15;95265.06;10504337;28;2797;-53
2023/12/10 17:29:57;;;;;;;;;;;;;;;20.24;34.58;95263.75;10509153;28;2848;-48
2023/12/10 17:34:59;;;;;;;;;;;;;;;20.28;34.22;95243.72;10516472;28;2933;-52
2023/12/10 17:39:59;;;;;;;;;;;;;;;20.28;34.18;95243.72;10509285;28;2794;-51
2023/12/10 17:44:59;;;;;;;;;;;;;;;20.25;34.75;95234.56;10512096;28;4985;-49
2023/12/10 17:49:59;;;;;;;;;;;;;;;20.26;34.48;95230.06;10511770;28;2865;-51
2023/12/10 17:55:00;;;;;;;;;;;;;;;20.26;34.60;95216.91;10509325;28;2818;-48
2023/12/10 18:00:00;;;;;;;;;;;;;;;20.29;34.30;95216.34;10508373;28;2945;-52
2023/12/10 18:05:00;;;;;;;;;;;;;;;20.30;34.46;95214.50;10509909;28;2829;-47
2023/12/10 18:10:01;;;;;;;;;;;;;;;20.28;34.31;95202.38;10507453;28;2871;-50
2023/12/10 18:15:01;;;;;;;;;;;;;;;20.30;34.77;95191.56;10506586;28;2827;-52
2023/12/10 18:20:01;;;;;;;;;;;;;;;20.39;34.23;95178.56;10504382;28;2821;-53
2023/12/10 18:25:02;;;;;;;;;;;;;;;20.44;34.29;95163.50;10500621;28;2839;-52
2023/12/10 18:30:04;;;;;;;;;;;;;;;20.50;34.13;95161.56;10508275;28;2936;-47
2023/12/10 18:35:05;;;;;;;;;;;;;;;20.66;33.88;95153.13;10505918;28;2824;-53
2023/12/10 18:40:05;;;;;;;;;;;;;;;20.73;33.82;95143.00;10514350;28;2911;-51
2023/12/10 18:45:06;;;;;;;;;;;;;;;20.82;33.40;95128.09;10508967;28;5100;-53
2023/12/10 18:50:07;;;;;;;;;;;;;;;20.88;33.70;95126.94;10504579;28;2805;-53
2023/12/10 18:55:08;;;;;;;;;;;;;;;20.94;33.70;95117.09;10507050;28;3402;-53
2023/12/10 19:00:08;;;;;;;;;;;;;;;20.99;33.47;95107.25;10505280;28;2867;-52
2023/12/10 19:05:09;;;;;;;;;;;;;;;21.10;33.07;95093.91;10502026;28;2866;-50
2023/12/10 19:10:09;;;;;;;;;;;;;;;21.14;33.75;95074.59;10513417;28;2900;-49
2023/12/10 19:15:09;;;;;;;;;;;;;;;21.21;33.26;95058.38;10498078;28;2859;-51
2023/12/10 19:20:20;;;;;;;;;;;;;;;21.22;33.48;95041.50;10506043;28;2816;-51
2023/12/10 19:25:21;;;;;;;;;;;;;;;21.32;33.66;95026.25;10498201;28;2844;-52
2023/12/10 19:30:21;;;;;;;;;;;;;;;21.41;32.79;95021.06;10505597;28;2776;-51
2023/12/10 19:35:21;;;;;;;;;;;;;;;21.46;32.99;95000.66;10494684;28;3051;-52
2023/12/10 19:40:22;;;;;;;;;;;;;;;21.44;33.76;94975.66;10509866;28;2883;-51
2023/12/10 19:45:22;;;;;;;;;;;;;;;21.51;33.15;94954.94;10496667;28;5044;-48
2023/12/10 19:50:22;;;;;;;;;;;;;;;21.50;32.75;94946.25;10503729;28;2803;-44
2023/12/10 19:55:23;;;;;;;;;;;;;;;21.57;32.81;94943.97;10501307;28;2809;-47
2023/12/10 20:00:23;;;;;;;;;;;;;;;21.60;32.85;94942.59;10503290;28;2851;-44
2023/12/10 20:05:23;;;;;;;;;;;;;;;21.69;32.89;94923.13;10498626;28;3004;-46
2023/12/10 20:10:24;;;;;;;;;;;;;;;21.75;33.92;94914.00;10503248;28;2808;-47
2023/12/10 20:15:24;;;;;;;;;;;;;;;21.76;33.34;94896.31;10503743;28;2875;-51
2023/12/10 20:20:24;;;;;;;;;;;;;;;21.81;33.57;94891.72;10502292;28;2778;-45
2023/12/10 20:25:27;;;;;;;;;;;;;;;21.81;33.81;94883.81;10500179;28;2784;-48
2023/12/10 20:30:27;;;;;;;;;;;;;;;21.86;33.23;94878.38;10499158;28;2864;-50
2023/12/10 20:35:27;;;;;;;;;;;;;;;21.84;33.67;94877.91;10500045;28;2834;-52
2023/12/10 20:40:28;;;;;;;;;;;;;;;21.90;33.54;94869.88;10501251;28;2839;-50
2023/12/10 20:45:28;;;;;;;;;;;;;;;21.95;33.69;94877.69;10499635;28;4856;-50
2023/12/10 20:50:28;;;;;;;;;;;;;;;21.97;34.31;94863.09;10498123;28;2875;-51
2023/12/10 20:55:28;;;;;;;;;;;;;;;22.03;33.81;94859.22;10498448;28;2962;-51
2023/12/10 21:00:33;;;;;;;;;;;;;;;22.07;34.10;94849.63;10498036;28;2936;-54
2023/12/10 21:05:33;;;;;;;;;;;;;;;22.26;33.71;94844.91;10504947;28;2845;-50
2023/12/10 21:10:33;;;;;;;;;;;;;;;22.39;33.14;94872.28;10463938;28;1096760;-50
2023/12/10 21:21:18;;;;;;;;;;;;;;;22.46;33.21;94851.50;10478470;28;4032;-49
2023/12/10 21:26:18;;;;;;;;;;;;;;;22.48;33.33;94842.16;10471206;28;3968;-47
2023/12/10 21:31:19;;;;;;;;;;;;;;;22.49;33.45;94832.38;10473193;28;2785;-47
2023/12/10 21:36:19;;;;;;;;;;;;;;;22.57;33.71;94795.44;10463558;28;3008;-51
2023/12/10 21:41:19;;;;;;;;;;;;;;;22.22;35.20;94758.69;10452767;28;4998;-53
2023/12/10 21:46:19;;;;;;;;;;;;;;;22.16;36.31;94746.72;10455588;28;2858;-53
2023/12/10 21:51:20;;;;;;;;;;;;;;;22.09;37.27;94736.63;10452919;28;2857;-51
2023/12/10 21:56:20;;;;;;;;;;;;;;;22.10;36.26;94748.75;10458377;28;2869;-50
2023/12/10 22:01:20;;;;;;;;;;;;;;;22.07;36.99;94728.22;10451919;28;3056;-48
2023/12/10 22:06:22;;;;;;;;;;;;;;;22.04;37.21;94702.47;10461103;28;2783;-53
2023/12/10 22:11:22;;;;;;;;;;;;;;;22.02;36.98;94675.59;10469485;28;2897;-53
2023/12/10 22:16:22;;;;;;;;;;;;;;;22.00;36.82;94672.50;10472840;28;2788;-52
2023/12/10 22:21:23;;;;;;;;;;;;;;;21.99;37.44;94675.44;10481525;28;2775;-52
2023/12/10 22:26:23;;;;;;;;;;;;;;;21.97;37.35;94669.72;10462091;28;2822;-52
2023/12/10 22:31:23;;;;;;;;;;;;;;;21.95;37.22;94674.50;10467493;28;2864;-52
2023/12/10 22:36:23;;;;;;;;;;;;;;;21.94;36.94;94659.75;10467934;28;2826;-52
2023/12/10 22:41:24;;;;;;;;;;;;;;;21.92;38.08;94661.94;10475349;28;5034;-51
2023/12/10 22:46:25;;;;;;;;;;;;;;;21.90;37.46;94656.97;10470292;28;2823;-52
2023/12/10 22:51:25;;;;;;;;;;;;;;;21.88;37.64;94660.97;10461305;28;2815;-50
2023/12/10 22:56:25;;;;;;;;;;;;;;;21.85;37.74;94667.66;10466231;28;2805;-52
2023/12/10 23:01:26;;;;;;;;;;;;;;;21.83;37.92;94681.16;10464983;28;2938;-49
2023/12/10 23:06:26;;;;;;;;;;;;;;;21.82;37.36;94684.84;10468711;28;2858;-52
2023/12/10 23:11:26;;;;;;;;;;;;;;;21.80;38.01;94696.78;10472514;28;2799;-48
2023/12/10 23:16:26;;;;;;;;;;;;;;;21.78;37.99;94693.69;10463454;28;2819;-51
2023/12/10 23:21:27;;;;;;;;;;;;;;;21.77;37.89;94692.13;10457750;28;2890;-47
2023/12/10 23:26:27;;;;;;;;;;;;;;;21.74;37.98;94682.94;10460788;28;2836;-50
2023/12/10 23:31:27;;;;;;;;;;;;;;;21.73;37.50;94680.63;10460084;28;2788;-51
2023/12/10 23:36:27;;;;;;;;;;;;;;;21.72;37.66;94679.09;10459243;28;2811;-54
2023/12/10 23:41:28;;;;;;;;;;;;;;;21.69;37.97;94690.22;10453512;28;5041;-53
2023/12/10 23:46:28;;;;;;;;;;;;;;;21.68;37.89;94678.13;10462239;28;2871;-50
2023/12/10 23:51:29;;;;;;;;;;;;;;;21.67;37.61;94692.41;10464157;28;2848;-52
2023/12/10 23:56:29;;;;;;;;;;;;;;;21.66;37.89;94675.00;10465375;28;2827;-51
